SEASEATTLE-TACOMA INTL
METARs for airports near SEA, sorted by distance:
N 0 nm 432' KSEA 241153Z 14006KT 10SM OVC021 04/01 A2987
NE 4 nm 32' KRNT 241153Z 12003KT 10SM -RA BKN023 BKN029 OVC039 04/01 A2989
N 4 nm 21' KBFI 241153Z 15007KT 10SM OVC023 03/02 A2989
SW 15 nm 294' KTIW 241206Z 16005KT 10SM FEW024 SCT030 OVC036 04/M01 A2986
W 18 nm 444' KPWT 241236Z 20003KT 10SM UP OVC014 03/02 A2984
S 20 nm 537' KPLU 241235Z 00000KT 10SM OVC036 03/00 A2985
N 27 nm 607' KPAE 241227Z VRB05KT 2SM -RA BR OVC004 02/01 A2985
W 36 nm 272' KSHN 241153Z 00000KT 5SM -RA BR SCT014 BKN027 OVC034 03/03 A2984
SW 37 nm 207' KOLM 241237Z 20005KT 10SM -RA BKN028 BKN048 OVC065 03/01 A2985
N 43 nm 141' KAWO 241156Z 35005KT 10SM OVC019 02/00 A2989
SW 53 nm 177' KCLS 241235Z 19006KT 10SM OVC032 04/02 A2986
N 55 nm 47' KNUW 241156Z 12010KT 10SM SCT010 BKN015 OVC030 04/01 A2990
NW 60 nm 13' KNOW 241235Z 09008KT 10SM OVC060 04/01 A2981
N 61 nm 145' KBVS 241235Z 13004KT 10SM OVC021 03/01 A2986
NW 62 nm 291' KCLM 241153Z 00000KT 10SM OVC050 02/00 A2982
NW 70 nm 112' KFHR 241238Z 12010KT 10SM -RA OVC009 04/02 A2984
SW 72 nm 17' KHQM 241240Z 09007KT 10SM -RA SCT009 BKN015 OVC029 04/03 A2982
E 76 nm 1763' KELN 241153Z 00000KT 10SM OVC120 M02/M06 A2983
N 79 nm 34' KORS 241235Z 17008KT 10SM BKN022 BKN037 OVC060 05/02 A2983
N 81 nm 171' KBLI 241153Z 04005KT 10SM FEW035 FEW043 OVC065 01/M02 A2986
S 83 nm 20' KKLS 241156Z 17005KT 10SM BKN045 OVC090 04/02 A2991
NW 84 nm 64' CYYJ 241200Z 12009KT 5SM -RA BR FEW009 BKN015 OVC037 04/03 A2983
E 85 nm 1248' KEAT 241155Z 23004KT 10SM OVC090 M04/M07 A2989
SE 89 nm 1098' KYKM 241153Z 00000KT 7SM CLR M05/M07 A2988
W 95 nm 193' KUIL 241153Z 15005KT 9SM -RA OVC013 04/03 A2979
TAFs for airports near SEA, sorted by distance:
N 0 nm 432' KSEA KSEA 241143Z 2412/2518 15006KT P6SM -RA OVC012
  FM242100 18010KT P6SM SCT008 BKN015 OVC025
N 4 nm 21' KBFI KBFI 241143Z 2412/2512 14006KT P6SM -RA OVC016
  FM242100 16008KT P6SM SCT012 BKN020 OVC030
W 18 nm 444' KPWT TAF KPWT 241143Z 2412/2512 19006KT P6SM -RA SCT003 OVC006
  TEMPO 2414/2418 3SM -RA OVC003
  FM242100 19006KT P6SM OVC006
N 27 nm 607' KPAE KPAE 241143Z 2412/2512 15006KT 4SM -RA SCT006 OVC012
  TEMPO 2412/2416 2SM -RASN BKN006 OVC012
  FM241600 15006KT 4SM -RA SCT006 OVC012
  TEMPO 2416/2420 2SM -RASN BKN006 OVC012
  FM242000 17010KT P6SM SCT006 BKN011 OVC018
SW 37 nm 207' KOLM KOLM 241143Z 2412/2512 20006KT P6SM -RA OVC030
  FM241600 20006KT P6SM -RA SCT012 BKN020 OVC030
  FM242200 22006KT P6SM SCT008 BKN015 OVC025
NW 62 nm 291' KCLM TAF KCLM 241143Z 2412/2512 VRB03KT P6SM SCT030 OVC060
  FM242000 VRB03KT P6SM SCT015 BKN025 OVC040
  FM250200 27008KT P6SM BKN015 OVC025
SW 72 nm 17' KHQM KHQM 241143Z 2412/2512 11008KT 4SM -RA OVC008
  FM241800 23012KT 6SM BR VCSH OVC010
  FM250200 23012KT P6SM SCT010 BKN018 OVC025
  FM250600 23012KT P6SM SCT020 BKN035
N 81 nm 171' KBLI KBLI 241143Z 2412/2512 03006KT P6SM SCT030 OVC060
  FM242000 16008KT P6SM SCT015 BKN025 OVC040
E 85 nm 1248' KEAT TAF KEAT 241132Z 2412/2512 00000KT P6SM BKN120 OVC200
  FM241600 VRB03KT P6SM OVC025
  FM242000 VRB03KT 2SM -SN BR OVC018
  FM242200 VRB04KT 1 1/2SM -SN BR OVC015
  FM250300 00000KT P6SM BKN010 PROB30 2503/2504 4SM -SN BR OVC008
SE 89 nm 1098' KYKM TAF KYKM 241120Z 2412/2512 29005KT P6SM OVC150
  TEMPO 2412/2415 5SM BR SCT010
  FM241800 VRB02KT P6SM OVC100
  FM242000 VRB03KT 3SM -SN OVC030
  FM250300 27003KT 6SM BR VCSH OVC030
  FM250800 29004KT P6SM OVC050

Shortcut to this page: http://wxbay.com.

Data may contain errors.